Meeker, Colorado
Current Conditions -  °F | °C
As of 2:53 AM on Friday 24 Oct 2014 (Local Time) from KEEO Reporting Station
Clear Clear  
Wind Chill: 36°   Ceiling: Unl
Heat Index: 39°   Visibility: 10mi
Dew Point: 33°   Wind: 5mph
Humidity: 79%   Direction: 90°E
Pressure: 30.28"   Gusts: NA
Location:  40.04°N, 107.91°W
Report Text: KEEO 240853Z AUTO 09004KT 10SM CLR 04/01 A3028 RMK AO2 SLP204 T00390006 51008
Loading
Personal Weather Stations






























Interactive Weather Map
Tropical Storm Tracking
New forecast layout! Learn more

10-Day Weather Forecast

Advertisements
Track Severe Weather on mobile